Chandalar Lake Airport


Codes: PALR/WCR
Name: Chandalar Lake Airport
City: Chandalar Lake
Country: United States
Elevation: 1920 ft.
Wikipedia:

Photos at Chandalar Lake Airport


   Photos courtesy of SpottingLog. You can add your own sightings and photos by signing up for a free trial today.



No photos found.

Weather at Chandalar Lake Airport


Time (UTC)DescriptionTempratureWindCloud coverageVisibilityPressureHumidity
23-May-2024 21:00Overcast Clouds10°C2 mph, NE100%10000m1008hPa65%
24-May-2024 00:00Light Rain10°C2 mph, N100%10000m1007hPa63%
24-May-2024 03:00Light Rain11°C4 mph, NE99%10000m1007hPa64%
24-May-2024 06:00Light Rain8°C4 mph, E99%10000m1008hPa83%
24-May-2024 09:00Light Rain6°C2 mph, NE100%744m1010hPa98%
24-May-2024 12:00Moderate Rain5°C4 mph, NE100%120m1010hPa97%
24-May-2024 15:00Light Rain5°C2 mph, NE100%128m1010hPa97%
24-May-2024 18:00Overcast Clouds6°C4 mph, NE100%1018m1009hPa90%
24-May-2024 21:00Light Rain8°C4 mph, NE100%10000m1008hPa69%
25-May-2024 00:00Overcast Clouds9°C4 mph, NE100%10000m1006hPa59%
25-May-2024 03:00Overcast Clouds8°C4 mph, E100%10000m1007hPa69%
25-May-2024 06:00Light Rain7°C2 mph, E98%10000m1007hPa85%
25-May-2024 09:00Light Snow3°C7 mph, NE61%10000m1009hPa84%
25-May-2024 12:00Broken Clouds2°C7 mph, NE71%10000m1011hPa72%
25-May-2024 15:00Broken Clouds2°C4 mph, NE80%10000m1011hPa62%
25-May-2024 18:00Broken Clouds4°C4 mph, E76%10000m1010hPa52%
25-May-2024 21:00Overcast Clouds6°C4 mph, E88%10000m1009hPa43%
26-May-2024 00:00Overcast Clouds7°C4 mph, SE93%10000m1009hPa52%
26-May-2024 03:00Light Snow4°C4 mph, SE100%1158m1011hPa82%
26-May-2024 06:00Snow2°C7 mph, NE100%251m1012hPa92%
26-May-2024 09:00Light Snow-0°C7 mph, NE98%10000m1015hPa88%
26-May-2024 12:00Broken Clouds-2°C7 mph, NE68%10000m1016hPa88%
26-May-2024 15:00Few Clouds0°C4 mph, NE18%10000m1015hPa78%
26-May-2024 18:00Scattered Clouds2°C4 mph, NE27%10000m1014hPa65%
26-May-2024 21:00Overcast Clouds4°C4 mph, E90%10000m1013hPa60%
27-May-2024 00:00Overcast Clouds5°C4 mph, E95%10000m1012hPa61%
27-May-2024 03:00Overcast Clouds5°C7 mph, E100%10000m1012hPa60%
27-May-2024 06:00Overcast Clouds4°C4 mph, E89%10000m1013hPa68%
27-May-2024 09:00Scattered Clouds1°C2 mph, E26%10000m1013hPa83%
27-May-2024 12:00Scattered Clouds0°C2 mph, NE33%10000m1014hPa85%
27-May-2024 15:00Scattered Clouds3°C2 mph, E29%10000m1013hPa72%
27-May-2024 18:00Scattered Clouds5°C2 mph, SE28%10000m1012hPa60%
27-May-2024 21:00Broken Clouds8°C2 mph, SE80%10000m1011hPa54%
28-May-2024 00:00Overcast Clouds9°C2 mph, SE88%10000m1010hPa50%
28-May-2024 03:00Overcast Clouds9°C4 mph, SE100%10000m1010hPa50%
28-May-2024 06:00Overcast Clouds8°C2 mph, SE100%10000m1010hPa59%
28-May-2024 09:00Overcast Clouds6°C0 mph, SW97%10000m1011hPa68%
28-May-2024 12:00Overcast Clouds6°C2 mph, NW97%10000m1011hPa69%
28-May-2024 15:00Overcast Clouds7°C2 mph, W100%10000m1011hPa65%
28-May-2024 18:00Broken Clouds9°C4 mph, SW69%10000m1010hPa48%